createdAt,value
2022-12-05T00:00:04.101Z,43
2022-12-05T00:05:10.200Z,43
2022-12-05T00:10:16.274Z,43
2022-12-05T00:15:22.369Z,43
2022-12-05T00:20:28.460Z,43
2022-12-05T00:25:34.552Z,43
2022-12-05T00:30:40.635Z,43
2022-12-05T00:35:46.725Z,43
2022-12-05T00:40:52.808Z,43
2022-12-05T00:45:58.897Z,43
2022-12-05T00:51:04.988Z,43
2022-12-05T00:56:11.079Z,43
2022-12-05T01:01:17.159Z,43
2022-12-05T01:06:23.252Z,43
2022-12-05T01:11:29.471Z,43
2022-12-05T01:16:35.457Z,43
2022-12-05T01:21:41.517Z,43
2022-12-05T01:31:53.731Z,43
2022-12-05T01:36:59.783Z,43
2022-12-05T01:42:05.951Z,43
2022-12-05T01:47:12.088Z,43
2022-12-05T01:52:18.256Z,43
2022-12-05T01:57:24.390Z,43
2022-12-05T02:02:30.552Z,43
2022-12-05T02:07:36.728Z,43
2022-12-05T02:12:42.852Z,43
2022-12-05T02:17:48.993Z,43
2022-12-05T02:22:55.147Z,43
2022-12-05T02:28:01.292Z,43
2022-12-05T02:33:07.448Z,43
2022-12-05T02:38:13.595Z,43
2022-12-05T02:43:19.741Z,43
2022-12-05T02:48:26.016Z,43
2022-12-05T02:53:32.284Z,43
2022-12-05T02:58:37.570Z,43
2022-12-05T03:03:42.754Z,43
2022-12-05T03:08:48.914Z,43
2022-12-05T03:13:55.076Z,43
2022-12-05T03:19:01.206Z,43
2022-12-05T03:24:07.374Z,43.5
2022-12-05T03:29:13.516Z,43.5
2022-12-05T03:34:19.664Z,43.5
2022-12-05T03:39:25.812Z,43.5
2022-12-05T03:44:31.981Z,43.5
2022-12-05T03:49:38.142Z,43.5
2022-12-05T03:54:44.258Z,43.5
2022-12-05T04:04:56.564Z,43.5
2022-12-05T04:10:02.707Z,43.5
2022-12-05T04:15:08.852Z,43.5
2022-12-05T04:20:15.022Z,43.5
2022-12-05T04:25:21.176Z,43.5
2022-12-05T04:30:27.315Z,43.5
2022-12-05T04:35:33.467Z,43.5
2022-12-05T04:40:39.616Z,43.5
2022-12-05T04:45:45.767Z,43.5
2022-12-05T04:50:51.922Z,43.5
2022-12-05T04:55:58.069Z,43.5
2022-12-05T05:06:09.318Z,43.5
2022-12-05T05:11:15.419Z,43.5
2022-12-05T05:16:21.497Z,43.5
2022-12-05T05:21:27.585Z,43.5
2022-12-05T05:26:33.685Z,43.5
2022-12-05T05:31:38.780Z,44
2022-12-05T05:36:44.876Z,44
2022-12-05T05:41:50.956Z,44.5
2022-12-05T05:46:57.047Z,44.5
2022-12-05T05:52:03.171Z,44.5
2022-12-05T05:57:09.215Z,44.5
2022-12-05T06:02:15.303Z,44.5
2022-12-05T06:07:20.409Z,44.5
2022-12-05T06:12:26.509Z,44.5
2022-12-05T06:17:32.603Z,45
2022-12-05T06:22:38.694Z,45.5
2022-12-05T06:32:50.857Z,45.5
2022-12-05T06:37:56.948Z,45.5
2022-12-05T06:48:09.132Z,46
2022-12-05T06:53:15.216Z,46
2022-12-05T06:58:21.311Z,46
2022-12-05T07:03:27.399Z,46
2022-12-05T07:08:33.501Z,46
2022-12-05T07:13:38.627Z,46
2022-12-05T07:18:44.695Z,46
2022-12-05T07:23:50.778Z,46
2022-12-05T07:34:02.957Z,46
2022-12-05T07:44:15.151Z,46.5
2022-12-05T07:49:20.241Z,46.5
2022-12-05T07:54:26.331Z,46.5
2022-12-05T07:59:32.416Z,46.5
2022-12-05T08:04:38.513Z,46.5
2022-12-05T08:09:44.587Z,46.5
2022-12-05T08:14:50.693Z,46.5
2022-12-05T08:19:56.798Z,46.5
2022-12-05T08:25:02.892Z,46.5
2022-12-05T08:35:15.057Z,46.5
2022-12-05T08:40:21.231Z,46.5
2022-12-05T08:45:27.212Z,46
2022-12-05T08:50:33.311Z,46
2022-12-05T08:55:39.399Z,45.5
2022-12-05T09:00:45.498Z,45.5
2022-12-05T09:10:57.670Z,44.5
2022-12-05T09:21:09.830Z,44
2022-12-05T09:26:15.932Z,43
2022-12-05T09:31:22.053Z,43
2022-12-05T09:36:27.146Z,42.5
2022-12-05T09:41:33.222Z,42
2022-12-05T09:46:39.312Z,42
2022-12-05T09:56:51.491Z,41
2022-12-05T10:01:57.588Z,41
2022-12-05T10:07:03.671Z,41
2022-12-05T10:12:09.762Z,40.5
2022-12-05T10:17:15.855Z,40.5
2022-12-05T10:22:21.958Z,40.5
2022-12-05T10:27:28.027Z,40.5
2022-12-05T10:32:34.119Z,40
2022-12-05T10:37:40.210Z,40
2022-12-05T10:42:46.301Z,40
2022-12-05T10:52:58.486Z,40
2022-12-05T10:58:04.574Z,40
2022-12-05T11:03:10.668Z,39.5
2022-12-05T11:08:16.758Z,39.5
2022-12-05T11:13:22.840Z,39.5
2022-12-05T11:18:28.930Z,39.5
2022-12-05T11:28:41.146Z,39.5
2022-12-05T11:33:47.197Z,39.5
2022-12-05T11:38:53.287Z,39.5
2022-12-05T11:43:59.433Z,39.5
2022-12-05T11:49:05.596Z,39.5
2022-12-05T11:59:17.897Z,39.5
2022-12-05T12:04:24.047Z,39.5
2022-12-05T12:09:30.195Z,39
2022-12-05T12:14:36.349Z,38.5
2022-12-05T12:19:42.500Z,38
2022-12-05T12:29:54.801Z,39
2022-12-05T12:35:00.956Z,39
2022-12-05T12:40:07.097Z,39
2022-12-05T12:45:13.276Z,38.5
2022-12-05T12:55:25.787Z,38
2022-12-05T13:00:32.055Z,38
2022-12-05T13:05:38.304Z,37.5
2022-12-05T13:10:44.586Z,37.5
2022-12-05T13:20:57.113Z,38.5
2022-12-05T13:26:03.393Z,39
2022-12-05T13:31:09.712Z,39
2022-12-05T13:36:15.907Z,39
2022-12-05T13:41:22.173Z,39
2022-12-05T13:46:28.440Z,39.5
2022-12-05T13:51:34.702Z,40
2022-12-05T13:56:41.181Z,40
2022-12-05T14:01:47.652Z,39.5
2022-12-05T14:06:54.132Z,39.5
2022-12-05T14:11:59.580Z,39.5
2022-12-05T14:17:05.782Z,40
2022-12-05T14:22:11.879Z,40
2022-12-05T14:27:18.077Z,39.5
2022-12-05T14:37:30.339Z,39.5
2022-12-05T14:42:36.483Z,39.5
2022-12-05T14:47:42.643Z,39.5
2022-12-05T14:52:48.790Z,40
2022-12-05T14:57:54.949Z,40
2022-12-05T15:08:07.235Z,39.5
2022-12-05T15:13:13.406Z,39
2022-12-05T15:18:19.543Z,39.5
2022-12-05T15:23:25.697Z,40
2022-12-05T15:28:31.851Z,40.5
2022-12-05T15:33:38.056Z,40.5
2022-12-05T15:38:44.150Z,40.5
2022-12-05T15:43:50.297Z,41
2022-12-05T15:48:56.467Z,40.5
2022-12-05T15:54:02.651Z,40.5
2022-12-05T15:59:08.761Z,40.5
2022-12-05T16:09:21.059Z,41
2022-12-05T16:14:27.210Z,41
2022-12-05T16:19:33.529Z,41
2022-12-05T16:24:39.782Z,41.5
2022-12-05T16:29:46.046Z,41.5
2022-12-05T16:34:52.267Z,41.5
2022-12-05T16:39:58.535Z,41
2022-12-05T16:45:04.851Z,41.5
2022-12-05T16:50:11.062Z,41.5
2022-12-05T16:55:17.322Z,41.5
2022-12-05T17:05:28.646Z,41.5
2022-12-05T17:10:34.794Z,42
2022-12-05T17:15:40.830Z,41.5
2022-12-05T17:20:46.925Z,41.5
2022-12-05T17:30:59.177Z,41.5
2022-12-05T17:36:05.184Z,41.5
2022-12-05T17:41:11.307Z,41.5
2022-12-05T17:46:17.523Z,41.5
2022-12-05T17:51:23.564Z,41.5
2022-12-05T17:56:29.554Z,41.5
2022-12-05T18:01:35.676Z,42
2022-12-05T18:06:41.911Z,42
2022-12-05T18:11:47.843Z,42.5
2022-12-05T18:16:54.100Z,42.5
2022-12-05T18:22:00.141Z,42.5
2022-12-05T18:27:06.261Z,43
2022-12-05T18:32:12.306Z,43
2022-12-05T18:37:18.413Z,43.5
2022-12-05T18:42:24.450Z,43.5
2022-12-05T18:47:30.521Z,43.5
2022-12-05T18:52:36.637Z,43.5
2022-12-05T18:57:42.679Z,44
2022-12-05T19:02:48.855Z,44
2022-12-05T19:07:54.886Z,44
2022-12-05T19:13:01.018Z,44
2022-12-05T19:18:07.261Z,44
2022-12-05T19:23:13.507Z,44.5
2022-12-05T19:28:19.473Z,44.5
2022-12-05T19:33:25.624Z,44.5
2022-12-05T19:38:31.768Z,44.5
2022-12-05T19:43:37.931Z,45
2022-12-05T19:48:44.080Z,45
2022-12-05T19:53:50.224Z,45
2022-12-05T19:58:56.384Z,45
2022-12-05T20:04:01.537Z,45
2022-12-05T20:09:07.646Z,45
2022-12-05T20:14:13.747Z,45
2022-12-05T20:19:19.811Z,45
2022-12-05T20:24:25.901Z,45
2022-12-05T20:29:31.990Z,45.5
2022-12-05T20:34:38.076Z,45.5
2022-12-05T20:39:44.159Z,45.5
2022-12-05T20:44:50.267Z,45.5
2022-12-05T20:49:56.341Z,45.5
2022-12-05T20:55:02.469Z,45.5
2022-12-05T21:00:08.559Z,45.5
2022-12-05T21:05:14.611Z,45.5
2022-12-05T21:10:20.700Z,45.5
2022-12-05T21:15:26.790Z,45.5
2022-12-05T21:20:32.877Z,45.5
2022-12-05T21:25:38.971Z,45.5
2022-12-05T21:30:45.064Z,45.5
2022-12-05T21:35:51.160Z,45.5
2022-12-05T21:40:57.243Z,45.5
2022-12-05T21:46:03.330Z,45.5
2022-12-05T21:51:09.430Z,45.5
2022-12-05T21:56:15.510Z,45.5
2022-12-05T22:01:21.597Z,45.5
2022-12-05T22:06:27.679Z,45.5
2022-12-05T22:11:33.832Z,45.5
2022-12-05T22:16:39.995Z,46
2022-12-05T22:21:46.136Z,46
2022-12-05T22:26:52.287Z,46
2022-12-05T22:31:58.440Z,46
2022-12-05T22:37:04.600Z,46
2022-12-05T22:42:10.832Z,46
2022-12-05T22:47:16.889Z,46
2022-12-05T22:52:23.044Z,46
2022-12-05T22:57:29.195Z,46
2022-12-05T23:02:35.348Z,46
2022-12-05T23:07:41.498Z,46
2022-12-05T23:12:47.643Z,46
2022-12-05T23:17:53.910Z,46
2022-12-05T23:23:00.178Z,46
2022-12-05T23:28:06.447Z,46
2022-12-05T23:33:12.709Z,46
2022-12-05T23:38:18.973Z,46
2022-12-05T23:43:25.236Z,46
2022-12-05T23:48:31.501Z,46
2022-12-05T23:53:37.765Z,46
2022-12-05T23:58:44.030Z,46
